Time;durP1;ratioP1;P1;durP2;ratioP2;P2;SDS_P1;SDS_P2;PMS_P1;PMS_P2;Temp;Humidity;BMP_temperature;BMP_pressure;BME280_temperature;BME280_humidity;BME280_pressure;Samples;Min_cycle;Max_cycle;Signal;HPM_P1;HPM_P2
2024/04/03 00:02:16;;;;;;;3.88;1.05;;;;;;;13.86;52.29;99921.97;5131808;27;20047;-52
2024/04/03 00:04:44;;;;;;;2.60;1.08;;;;;;;13.85;52.96;99920.25;5131778;27;20047;-53
2024/04/03 00:07:10;;;;;;;3.88;1.10;;;;;;;13.91;52.59;99916.25;5131679;27;20129;-53
2024/04/03 00:09:38;;;;;;;2.50;0.85;;;;;;;13.92;52.61;99920.66;5131692;27;20157;-53
2024/04/03 00:12:07;;;;;;;2.75;0.93;;;;;;;13.90;52.59;99917.25;5131381;27;20126;-55
2024/04/03 00:14:34;;;;;;;3.95;1.20;;;;;;;13.88;52.93;99932.56;5131134;27;20047;-55
2024/04/03 00:17:02;;;;;;;0.82;0.60;;;;;;;13.87;52.82;99923.69;5131329;27;20326;-49
2024/04/03 00:19:30;;;;;;;1.83;0.90;;;;;;;13.89;52.74;99920.88;5131671;27;20043;-52
2024/04/03 00:21:56;;;;;;;2.58;1.00;;;;;;;13.79;52.37;99911.84;5131332;27;20047;-54
2024/04/03 00:24:23;;;;;;;1.75;0.73;;;;;;;13.76;52.49;99921.00;5131267;27;20068;-53
2024/04/03 00:26:50;;;;;;;3.35;0.90;;;;;;;13.75;52.74;99911.25;5130998;27;20047;-54
2024/04/03 00:29:17;;;;;;;2.25;0.93;;;;;;;13.77;52.89;99911.97;5131345;27;20043;-54
2024/04/03 00:31:45;;;;;;;1.20;0.68;;;;;;;13.74;52.62;99918.44;5131198;27;20091;-53
2024/04/03 00:34:14;;;;;;;6.13;0.90;;;;;;;13.70;52.87;99922.34;5130890;27;20054;-50
2024/04/03 00:36:40;;;;;;;2.13;0.95;;;;;;;13.72;52.58;99923.06;5130927;27;20380;-53
2024/04/03 00:39:07;;;;;;;2.30;1.00;;;;;;;13.67;52.88;99919.03;5130615;27;20054;-54
2024/04/03 00:41:34;;;;;;;1.83;0.80;;;;;;;13.68;52.92;99918.91;5130729;27;20039;-54
2024/04/03 00:44:01;;;;;;;3.00;0.90;;;;;;;13.66;52.96;99925.38;5130828;27;20051;-52
2024/04/03 00:46:27;;;;;;;2.33;0.80;;;;;;;13.52;52.74;99923.78;5130701;27;20043;-52
2024/04/03 00:48:56;;;;;;;2.35;0.90;;;;;;;13.63;52.99;99923.78;5130633;27;20575;-55
2024/04/03 00:51:23;;;;;;;1.58;0.88;;;;;;;13.66;52.59;99926.22;5130660;27;20454;-51
2024/04/03 00:53:51;;;;;;;2.83;1.05;;;;;;;13.73;52.35;99916.72;5130432;27;20048;-53
2024/04/03 00:56:19;;;;;;;1.73;0.73;;;;;;;13.68;52.63;99913.53;5130710;27;20047;-50
2024/04/03 00:58:46;;;;;;;2.72;0.80;;;;;;;13.74;52.41;99906.88;5130590;27;20096;-53
2024/04/03 01:01:13;;;;;;;2.78;0.65;;;;;;;13.69;52.47;99904.53;5130705;27;20057;-53
2024/04/03 01:03:40;;;;;;;2.00;0.80;;;;;;;13.59;52.17;99902.69;5130333;27;20047;-53
2024/04/03 01:06:08;;;;;;;2.75;0.90;;;;;;;13.66;52.34;99904.78;5130256;27;20047;-54
2024/04/03 01:08:37;;;;;;;2.30;0.70;;;;;;;13.57;52.35;99900.13;5129606;27;20055;-53
2024/04/03 01:11:03;;;;;;;2.15;1.00;;;;;;;13.64;51.97;99900.53;5130407;27;20043;-53
2024/04/03 01:13:31;;;;;;;1.70;0.80;;;;;;;13.75;51.77;99895.16;5130445;27;20449;-52
2024/04/03 01:16:01;;;;;;;1.17;0.60;;;;;;;13.72;51.86;99898.94;5130051;27;20043;-52
2024/04/03 01:18:28;;;;;;;2.05;0.77;;;;;;;13.67;51.74;99898.44;5130267;27;20059;-54
2024/04/03 01:20:54;;;;;;;2.72;1.00;;;;;;;13.59;51.89;99892.81;5130109;27;20074;-52
2024/04/03 01:23:22;;;;;;;4.03;1.23;;;;;;;13.66;52.03;99893.22;5130471;27;20155;-55
2024/04/03 01:25:50;;;;;;;1.85;0.75;;;;;;;13.56;51.13;99887.72;5130248;27;20055;-54
2024/04/03 01:28:20;;;;;;;1.52;0.63;;;;;;;13.58;50.38;99893.81;5130077;27;20047;-56
2024/04/03 01:30:46;;;;;;;0.65;0.50;;;;;;;13.63;50.44;99894.31;5130312;27;20054;-52
2024/04/03 01:33:14;;;;;;;2.00;0.70;;;;;;;13.65;50.33;99887.00;5130002;27;20069;-53
2024/04/03 01:35:40;;;;;;;1.83;0.68;;;;;;;13.68;50.53;99889.41;5129723;27;20101;-55
2024/04/03 01:38:09;;;;;;;1.73;0.77;;;;;;;13.64;50.58;99890.66;5129982;27;20130;-54
2024/04/03 01:40:36;;;;;;;1.75;0.77;;;;;;;13.66;50.06;99891.38;5129856;27;20047;-54
2024/04/03 01:43:04;;;;;;;2.10;0.85;;;;;;;13.62;50.45;99892.59;5129964;27;20094;-54
2024/04/03 01:45:30;;;;;;;1.90;0.77;;;;;;;13.66;50.65;99887.84;5129931;28;20043;-51
2024/04/03 01:47:58;;;;;;;1.88;0.70;;;;;;;13.64;50.73;99887.97;5129735;27;20044;-55
2024/04/03 01:50:36;;;;;;;2.50;0.82;;;;;;;13.57;50.52;99894.78;5129531;27;20048;-50
2024/04/03 01:53:03;;;;;;;1.67;0.60;;;;;;;13.58;50.73;99895.63;5129838;27;20126;-51
2024/04/03 01:55:29;;;;;;;1.00;0.65;;;;;;;13.51;51.02;99895.28;5129599;27;20070;-52
2024/04/03 01:57:57;;;;;;;1.50;0.75;;;;;;;13.50;50.97;99882.81;5129565;27;20126;-53
2024/04/03 02:00:24;;;;;;;1.98;0.82;;;;;;;13.42;51.39;99890.63;5129334;27;20051;-52
2024/04/03 02:02:52;;;;;;;1.98;0.80;;;;;;;13.35;51.51;99894.75;5129285;27;20043;-51
2024/04/03 02:05:18;;;;;;;1.52;0.65;;;;;;;13.39;51.52;99885.50;5129812;27;20471;-52
2024/04/03 02:07:45;;;;;;;1.55;0.85;;;;;;;13.37;51.79;99887.44;5129543;27;20159;-51
2024/04/03 02:10:11;;;;;;;2.67;1.10;;;;;;;13.24;51.89;99890.22;5129684;28;20043;-51
2024/04/03 02:12:38;;;;;;;1.85;0.73;;;;;;;13.22;52.08;99876.09;5129961;27;20047;-53
2024/04/03 02:15:05;;;;;;;2.20;0.77;;;;;;;13.23;52.10;99879.63;5129855;27;20047;-52
2024/04/03 02:17:34;;;;;;;2.75;0.80;;;;;;;13.23;52.06;99879.63;5129828;27;20043;-54
2024/04/03 02:20:00;;;;;;;1.52;0.90;;;;;;;13.23;52.19;99879.63;5133400;27;20058;-52
2024/04/03 02:22:28;;;;;;;2.63;1.00;;;;;;;13.20;52.65;99871.81;5133929;27;20122;-52
2024/04/03 02:24:54;;;;;;;1.92;0.98;;;;;;;13.12;52.67;99878.59;5134793;27;20043;-51
2024/04/03 02:27:21;;;;;;;2.35;0.77;;;;;;;13.09;52.99;99878.81;5135146;27;20039;-55
2024/04/03 02:29:47;;;;;;;2.55;1.00;;;;;;;13.00;53.22;99884.88;5133460;27;20578;-54
2024/04/03 02:32:14;;;;;;;2.83;0.80;;;;;;;13.02;53.09;99880.25;5133373;27;20134;-53
2024/04/03 02:34:42;;;;;;;2.22;0.88;;;;;;;12.94;53.21;99874.66;5133199;27;20437;-53
2024/04/03 02:37:09;;;;;;;2.10;1.10;;;;;;;12.99;53.40;99877.81;5133161;27;20047;-51
2024/04/03 02:39:35;;;;;;;1.75;0.95;;;;;;;13.06;53.79;99876.38;5132978;27;20582;-51
2024/04/03 02:42:03;;;;;;;2.65;1.00;;;;;;;13.11;53.99;99876.88;5133106;27;20050;-55
2024/04/03 02:44:31;;;;;;;3.25;1.15;;;;;;;13.06;54.54;99881.72;5132859;27;20043;-55
2024/04/03 02:46:58;;;;;;;2.65;1.05;;;;;;;13.06;54.32;99868.34;5133351;27;20417;-52
2024/04/03 02:49:24;;;;;;;2.47;1.00;;;;;;;12.92;54.89;99871.19;5132996;27;20046;-54
2024/04/03 02:51:53;;;;;;;3.05;1.10;;;;;;;12.97;55.32;99876.22;5132869;27;20066;-50
2024/04/03 02:54:19;;;;;;;2.03;1.00;;;;;;;12.89;55.28;99874.13;5132873;27;20045;-52
2024/04/03 02:56:46;;;;;;;2.22;1.00;;;;;;;12.91;55.40;99880.22;5132856;27;20043;-51
2024/04/03 02:59:13;;;;;;;4.30;1.20;;;;;;;12.93;55.57;99882.75;5132487;27;20462;-51
2024/04/03 03:01:40;;;;;;;3.97;1.10;;;;;;;12.82;55.56;99879.06;5132511;27;20083;-50
2024/04/03 03:04:06;;;;;;;4.15;1.17;;;;;;;12.70;56.03;99881.84;5132804;27;20175;-54
2024/04/03 03:06:33;;;;;;;3.60;1.17;;;;;;;12.79;56.05;99882.00;5132412;27;20083;-52
2024/04/03 03:09:01;;;;;;;3.67;1.40;;;;;;;12.87;55.57;99894.81;5132494;27;20050;-51
2024/04/03 03:11:28;;;;;;;2.55;0.90;;;;;;;12.89;55.74;99895.53;5132261;27;20077;-54
2024/04/03 03:13:55;;;;;;;1.55;0.95;;;;;;;12.78;55.46;99896.34;5132179;27;20107;-52
2024/04/03 03:16:23;;;;;;;3.40;1.33;;;;;;;12.57;56.49;99903.31;5131869;27;20051;-50
2024/04/03 03:18:49;;;;;;;2.60;1.20;;;;;;;12.40;57.02;99899.19;5132158;27;20051;-49
2024/04/03 03:21:17;;;;;;;2.83;1.38;;;;;;;12.35;57.79;99904.00;5132335;27;20065;-52
2024/04/03 03:23:43;;;;;;;2.47;1.23;;;;;;;12.43;57.77;99903.44;5132315;27;20043;-49
2024/04/03 03:26:12;;;;;;;1.92;1.05;;;;;;;12.36;58.18;99902.22;5132086;27;20054;-52
2024/04/03 03:28:38;;;;;;;3.05;1.50;;;;;;;12.24;58.36;99895.91;5132124;27;20042;-54
2024/04/03 03:31:05;;;;;;;4.25;1.40;;;;;;;12.28;58.56;99905.44;5131188;27;20044;-53
2024/04/03 03:33:32;;;;;;;3.53;1.27;;;;;;;11.79;59.97;99903.56;5132357;27;20123;-51
2024/04/03 03:35:58;;;;;;;3.30;1.50;;;;;;;11.95;59.90;99906.88;5132510;27;20130;-54
2024/04/03 03:38:26;;;;;;;3.42;1.30;;;;;;;12.10;59.95;99901.41;5131937;27;20482;-51
2024/04/03 03:40:53;;;;;;;2.33;1.38;;;;;;;12.20;59.77;99900.63;5131353;27;20129;-51
2024/04/03 03:43:22;;;;;;;3.05;1.30;;;;;;;12.16;59.97;99891.16;5131608;27;20578;-55
2024/04/03 03:45:50;;;;;;;3.67;1.70;;;;;;;12.23;60.32;99896.88;5131767;27;20126;-52
2024/04/03 03:48:17;;;;;;;3.03;1.58;;;;;;;12.24;60.30;99901.25;5131580;27;20113;-53
2024/04/03 03:53:31;;;;;;;2.65;1.50;;;;;;;12.29;60.11;99909.81;5131397;27;20059;-52
2024/04/03 03:55:58;;;;;;;4.65;1.67;;;;;;;12.35;60.02;99898.66;5131257;27;20043;-54
2024/04/03 03:58:27;;;;;;;4.60;1.60;;;;;;;12.36;59.98;99912.91;5131129;27;20043;-50
2024/04/03 04:00:54;;;;;;;4.10;1.70;;;;;;;11.95;60.78;99906.88;5131214;27;20456;-51
2024/04/03 04:03:21;;;;;;;5.78;1.73;;;;;;;11.64;63.10;99908.16;5131326;27;20118;-51
2024/04/03 04:05:57;;;;;;;3.03;1.50;;;;;;;11.82;63.34;99911.41;5130997;27;20066;-54
2024/04/03 04:08:25;;;;;;;2.65;1.40;;;;;;;11.72;63.56;99918.31;5130992;27;20059;-54
2024/04/03 04:10:53;;;;;;;5.05;1.73;;;;;;;11.78;63.48;99919.72;5130739;27;20507;-50
2024/04/03 04:13:20;;;;;;;5.32;1.63;;;;;;;11.80;63.79;99929.38;5130814;27;20479;-52
2024/04/03 04:15:48;;;;;;;7.32;2.22;;;;;;;11.87;63.49;99930.66;5130588;27;20047;-50
2024/04/03 04:18:15;;;;;;;4.15;1.70;;;;;;;11.91;63.16;99924.09;5130695;27;20050;-54
2024/04/03 04:20:42;;;;;;;4.47;1.80;;;;;;;11.76;63.50;99936.69;5130756;27;20099;-55
2024/04/03 04:23:09;;;;;;;3.42;1.42;;;;;;;11.70;63.97;99934.47;5131145;27;20055;-57
2024/04/03 04:25:35;;;;;;;6.88;1.70;;;;;;;11.68;64.05;99935.53;5131097;27;20118;-55
2024/04/03 04:28:03;;;;;;;4.10;1.70;;;;;;;11.78;63.21;99935.75;5130744;27;20487;-55
2024/04/03 04:30:29;;;;;;;4.85;2.00;;;;;;;11.68;63.43;99935.53;5130767;27;20051;-53
2024/04/03 04:32:58;;;;;;;3.03;1.73;;;;;;;11.49;64.43;99924.44;5130775;27;20143;-54
2024/04/03 04:35:24;;;;;;;5.13;1.73;;;;;;;11.65;64.06;99930.38;5130639;27;20468;-51
2024/04/03 04:37:52;;;;;;;3.92;1.73;;;;;;;11.73;63.85;99931.56;5130946;27;20043;-52
2024/04/03 04:40:18;;;;;;;4.13;1.77;;;;;;;11.59;64.05;99933.50;5130785;27;20070;-54
2024/04/03 04:42:46;;;;;;;4.43;1.60;;;;;;;11.68;63.57;99930.19;5130903;27;20051;-50
2024/04/03 04:45:13;;;;;;;5.90;1.83;;;;;;;11.73;63.68;99928.03;5130651;27;20515;-53
2024/04/03 04:47:40;;;;;;;4.00;1.70;;;;;;;11.38;64.42;99919.78;5130701;27;20085;-54
2024/04/03 04:50:09;;;;;;;4.03;1.88;;;;;;;11.21;65.59;99920.13;5130511;27;20475;-51
2024/04/03 04:52:36;;;;;;;3.92;2.00;;;;;;;11.21;66.47;99912.97;5130749;27;20093;-55
2024/04/03 04:55:03;;;;;;;3.38;1.70;;;;;;;11.37;65.60;99920.75;5130403;27;20039;-51
2024/04/03 04:57:31;;;;;;;5.32;2.10;;;;;;;11.63;65.02;99916.28;5130622;27;20050;-52
2024/04/03 04:59:57;;;;;;;5.63;2.10;;;;;;;11.83;64.17;99918.44;5130486;27;20043;-53
2024/04/03 05:02:24;;;;;;;6.03;2.30;;;;;;;11.50;64.74;99915.44;5130354;27;20043;-53
2024/04/03 05:04:52;;;;;;;5.90;2.70;;;;;;;11.49;65.48;99908.41;5130504;27;20051;-53
2024/04/03 05:07:21;;;;;;;6.30;2.60;;;;;;;11.40;65.85;99900.06;5131758;27;20050;-54
2024/04/03 05:09:47;;;;;;;4.70;2.47;;;;;;;11.80;64.98;99904.47;5131790;27;20058;-55
2024/04/03 05:12:14;;;;;;;5.38;2.00;;;;;;;12.14;63.80;99903.75;5130610;27;20506;-55
2024/04/03 05:14:40;;;;;;;5.22;2.20;;;;;;;12.29;63.21;99893.78;5129875;27;20471;-51
2024/04/03 05:17:07;;;;;;;7.43;2.20;;;;;;;12.39;62.07;99900.16;5130152;27;20126;-57
2024/04/03 05:19:34;;;;;;;5.43;2.20;;;;;;;12.42;62.33;99899.91;5129934;27;20119;-52
2024/04/03 05:22:02;;;;;;;6.60;2.20;;;;;;;12.46;62.51;99906.78;5130329;27;20054;-51
2024/04/03 05:24:29;;;;;;;6.10;2.40;;;;;;;12.55;61.74;99900.75;5130338;27;20111;-52
2024/04/03 05:26:56;;;;;;;7.72;2.35;;;;;;;12.72;61.72;99906.66;5130288;27;20051;-52
2024/04/03 05:29:23;;;;;;;10.10;2.80;;;;;;;12.76;61.69;99909.00;5130257;27;20047;-55
2024/04/03 05:31:50;;;;;;;5.68;2.80;;;;;;;12.90;60.85;99907.94;5130009;27;20449;-54
2024/04/03 05:34:16;;;;;;;5.30;2.50;;;;;;;13.03;60.72;99918.59;5130299;27;20480;-52
2024/04/03 05:36:43;;;;;;;4.95;2.25;;;;;;;13.07;60.41;99922.75;5129790;27;20043;-58
2024/04/03 05:39:09;;;;;;;4.80;2.47;;;;;;;13.17;60.04;99913.03;5130219;27;20154;-54
2024/04/03 05:41:38;;;;;;;4.97;2.55;;;;;;;13.17;60.05;99915.72;5130258;27;20217;-52
2024/04/03 05:44:04;;;;;;;6.00;2.50;;;;;;;13.20;59.84;99914.66;5130337;28;20047;-53
2024/04/03 05:46:31;;;;;;;8.80;2.67;;;;;;;13.32;59.75;99911.06;5130392;27;20050;-52
2024/04/03 05:48:58;;;;;;;6.93;2.83;;;;;;;13.39;58.75;99917.63;5130598;28;20397;-51
2024/04/03 05:51:25;;;;;;;6.35;2.25;;;;;;;13.50;58.63;99917.66;5130419;27;20047;-53
2024/04/03 05:53:51;;;;;;;5.55;2.45;;;;;;;13.63;57.93;99920.25;5132308;27;20092;-52
2024/04/03 05:56:18;;;;;;;10.00;2.60;;;;;;;13.85;57.54;99924.78;5134839;27;20088;-50
2024/04/03 05:58:47;;;;;;;7.18;2.40;;;;;;;13.88;57.28;99921.84;5134900;27;20491;-54
2024/04/03 06:01:14;;;;;;;6.57;2.40;;;;;;;14.05;56.87;99934.78;5134620;27;20124;-53
2024/04/03 06:03:41;;;;;;;6.00;2.40;;;;;;;14.14;56.61;99943.91;5134500;27;20043;-52
2024/04/03 06:06:08;;;;;;;8.20;2.80;;;;;;;14.36;56.54;99949.25;5134504;27;20472;-53
2024/04/03 06:08:35;;;;;;;6.70;2.63;;;;;;;14.36;56.15;99945.72;5134540;27;20108;-51
2024/04/03 06:11:02;;;;;;;8.98;3.25;;;;;;;13.89;57.35;99947.69;5134484;27;20446;-50
2024/04/03 06:13:29;;;;;;;6.32;3.40;;;;;;;14.03;57.01;99939.41;5134337;27;20050;-53
2024/04/03 06:15:57;;;;;;;7.15;3.10;;;;;;;14.17;56.73;99947.19;5133757;27;20488;-49
2024/04/03 06:18:24;;;;;;;7.45;2.97;;;;;;;13.87;57.21;99937.06;5134466;27;20049;-51
2024/04/03 06:20:50;;;;;;;7.03;3.15;;;;;;;14.02;56.77;99943.06;5134120;27;20569;-52
2024/04/03 06:23:18;;;;;;;7.30;3.63;;;;;;;13.43;58.97;99933.38;5134155;27;20503;-54
2024/04/03 06:25:44;;;;;;;5.97;3.25;;;;;;;13.55;58.44;99933.41;5134285;27;20054;-54
2024/04/03 06:28:11;;;;;;;8.70;2.83;;;;;;;13.85;58.78;99930.13;5133978;27;20096;-52
2024/04/03 06:30:38;;;;;;;7.38;3.17;;;;;;;14.18;57.83;99932.81;5134064;27;20126;-52
2024/04/03 06:33:06;;;;;;;8.57;2.60;;;;;;;14.19;57.59;99929.19;5134091;27;20130;-54
2024/04/03 06:35:33;;;;;;;7.95;2.63;;;;;;;14.03;58.09;99928.69;5134253;27;20043;-54
2024/04/03 06:38:00;;;;;;;5.72;2.45;;;;;;;14.30;56.98;99926.47;5116781;27;20046;-53
2024/04/03 06:40:27;;;;;;;6.80;2.30;;;;;;;14.59;56.16;99925.97;5133660;27;20047;-52
2024/04/03 06:42:54;;;;;;;7.20;2.70;;;;;;;14.81;55.63;99923.22;5133781;27;20130;-53
2024/04/03 06:45:22;;;;;;;6.68;2.80;;;;;;;15.02;54.72;99922.41;5133713;27;20495;-52
2024/04/03 06:47:49;;;;;;;6.13;2.92;;;;;;;14.91;55.40;99925.13;5133840;27;20384;-52
2024/04/03 06:50:18;;;;;;;5.72;2.50;;;;;;;15.10;54.20;99920.78;5133472;27;20043;-53
2024/04/03 06:52:44;;;;;;;5.72;2.83;;;;;;;15.33;53.82;99916.13;5133669;27;20638;-53
2024/04/03 06:55:11;;;;;;;7.30;3.03;;;;;;;15.37;53.81;99917.59;5133705;27;20043;-51
2024/04/03 06:57:38;;;;;;;6.70;2.92;;;;;;;15.57;52.90;99920.41;5133288;27;20058;-52
2024/04/03 07:00:06;;;;;;;5.97;2.60;;;;;;;15.60;52.18;99920.13;5133691;27;20082;-54
2024/04/03 07:02:33;;;;;;;5.72;2.50;;;;;;;15.38;52.87;99930.06;5133558;27;20183;-54
2024/04/03 07:05:00;;;;;;;8.43;2.50;;;;;;;15.39;52.68;99937.13;5132144;27;20078;-55
2024/04/03 07:07:28;;;;;;;12.05;2.70;;;;;;;15.77;52.46;99924.09;5133302;27;20092;-49
2024/04/03 07:09:58;;;;;;;8.20;3.20;;;;;;;16.07;51.54;99926.78;5133207;27;20475;-50
2024/04/03 07:12:24;;;;;;;7.28;2.65;;;;;;;15.92;51.38;99923.63;5132866;27;20047;-50
2024/04/03 07:14:51;;;;;;;5.82;2.47;;;;;;;15.60;51.38;99933.56;5133323;27;20059;-51
2024/04/03 07:17:18;;;;;;;4.60;1.85;;;;;;;15.86;50.44;99932.22;5133229;27;20078;-52
2024/04/03 07:19:45;;;;;;;5.72;2.25;;;;;;;16.24;49.99;99934.22;5133125;27;20058;-51
2024/04/03 07:22:11;;;;;;;5.57;2.10;;;;;;;16.26;49.03;99934.09;5133043;27;20126;-55
2024/04/03 07:24:42;;;;;;;6.47;1.80;;;;;;;16.23;48.75;99939.75;5132665;27;20043;-49
2024/04/03 07:27:09;;;;;;;4.95;1.80;;;;;;;16.37;48.44;99943.91;5133118;27;20178;-51
2024/04/03 07:29:36;;;;;;;4.20;1.77;;;;;;;16.60;47.88;99932.78;5132867;27;20043;-51
2024/04/03 07:32:03;;;;;;;4.35;1.90;;;;;;;16.64;47.53;99944.13;5132975;27;20101;-51
2024/04/03 07:34:30;;;;;;;5.82;1.98;;;;;;;16.88;47.20;99950.00;5132980;27;20053;-51
2024/04/03 07:36:56;;;;;;;4.82;1.63;;;;;;;17.09;46.91;99946.34;5132704;27;20565;-52
2024/04/03 07:39:25;;;;;;;3.35;1.50;;;;;;;16.82;46.41;99944.31;5132702;27;20043;-52
2024/04/03 07:41:53;;;;;;;4.85;1.83;;;;;;;16.92;46.08;99952.41;5133048;27;20058;-53
2024/04/03 07:44:21;;;;;;;3.78;1.63;;;;;;;17.01;45.61;99954.28;5136812;27;20149;-55
2024/04/03 07:46:49;;;;;;;3.63;1.63;;;;;;;16.97;45.77;99947.44;5134537;27;20484;-53
2024/04/03 07:49:16;;;;;;;5.15;2.35;;;;;;;17.07;44.88;99943.75;5132662;27;20207;-52
2024/04/03 07:51:46;;;;;;;3.58;1.65;;;;;;;17.30;44.67;99943.50;5132462;27;20545;-56
2024/04/03 07:54:13;;;;;;;3.03;1.30;;;;;;;17.55;44.11;99948.28;5132363;27;20046;-56
2024/04/03 07:56:40;;;;;;;3.75;1.17;;;;;;;17.60;43.47;99948.72;5132197;27;20134;-52
2024/04/03 07:59:09;;;;;;;5.10;1.60;;;;;;;17.75;42.62;99949.13;5132528;27;20047;-52
2024/04/03 08:01:35;;;;;;;5.75;1.88;;;;;;;17.85;43.17;99955.34;5132422;27;20161;-52
2024/04/03 08:04:03;;;;;;;4.25;1.42;;;;;;;17.96;42.48;99957.91;5132364;27;20047;-55
2024/04/03 08:06:29;;;;;;;3.83;1.55;;;;;;;18.01;42.88;99955.59;5132035;27;20047;-51
2024/04/03 08:08:57;;;;;;;5.97;1.50;;;;;;;18.13;42.25;99948.16;5132438;27;20050;-53
2024/04/03 08:11:23;;;;;;;2.45;1.25;;;;;;;18.25;42.55;99957.78;5132319;27;20448;-52
2024/04/03 08:13:52;;;;;;;4.40;1.70;;;;;;;18.18;42.83;99958.53;5132267;27;20040;-51
2024/04/03 08:16:19;;;;;;;6.00;1.73;;;;;;;18.30;43.65;99958.19;5131316;27;20102;-54
2024/04/03 08:18:47;;;;;;;3.78;1.75;;;;;;;18.48;43.38;99962.81;5132056;27;20126;-54
2024/04/03 08:21:14;;;;;;;4.40;1.48;;;;;;;18.29;43.89;99964.59;5127806;27;20136;-53
2024/04/03 08:23:41;;;;;;;2.92;1.48;;;;;;;18.32;43.07;99966.13;5122001;27;20073;-52
2024/04/03 08:26:09;;;;;;;3.90;1.45;;;;;;;18.41;42.28;99957.13;5131548;27;20141;-50
2024/04/03 08:28:37;;;;;;;5.97;1.58;;;;;;;18.46;42.33;99970.22;5131318;27;20055;-51
2024/04/03 08:31:09;;;;;;;4.93;1.65;;;;;;;18.72;42.75;99960.44;5131251;27;20051;-51
2024/04/03 08:33:38;;;;;;;4.43;1.50;;;;;;;18.75;42.95;99962.81;5131340;27;20431;-54
2024/04/03 08:36:06;;;;;;;4.38;1.73;;;;;;;18.50;43.60;99963.50;5132184;27;20043;-52
2024/04/03 08:38:33;;;;;;;3.78;1.50;;;;;;;18.57;44.57;99962.75;5132511;27;20480;-53
2024/04/03 08:41:00;;;;;;;3.00;1.50;;;;;;;18.64;45.10;99964.84;5130650;27;20099;-52
2024/04/03 08:43:28;;;;;;;6.47;1.80;;;;;;;18.81;44.39;99962.19;5131062;27;20410;-49
2024/04/03 08:45:55;;;;;;;6.50;1.60;;;;;;;18.74;45.17;99958.44;5130698;27;20426;-51
2024/04/03 08:48:25;;;;;;;3.33;1.35;;;;;;;18.77;45.08;99947.31;5130906;27;20123;-55
2024/04/03 08:50:53;;;;;;;5.32;1.75;;;;;;;18.68;45.73;99958.19;5131039;27;20105;-52
2024/04/03 08:53:24;;;;;;;5.40;1.60;;;;;;;18.74;45.53;99957.56;5131192;27;20444;-52
2024/04/03 08:55:53;;;;;;;2.90;1.38;;;;;;;18.86;45.34;99962.59;5130943;27;20403;-50
2024/04/03 08:58:20;;;;;;;3.95;1.60;;;;;;;19.09;45.25;99968.41;5130925;27;20047;-50
2024/04/03 09:00:48;;;;;;;3.90;1.52;;;;;;;19.27;45.37;99960.31;5130351;27;20047;-51
2024/04/03 09:03:16;;;;;;;5.15;1.63;;;;;;;19.07;44.37;99958.75;5130154;27;20096;-52
2024/04/03 09:05:42;;;;;;;3.92;1.38;;;;;;;19.04;44.38;99959.06;5130458;27;20044;-52
2024/04/03 09:08:11;;;;;;;4.60;1.70;;;;;;;19.09;44.29;99951.34;5130294;27;20130;-55
2024/04/03 09:10:43;;;;;;;3.05;1.33;;;;;;;19.26;44.25;99947.78;5130314;27;20059;-52
2024/04/03 09:13:11;;;;;;;3.53;1.50;;;;;;;19.36;43.65;99942.31;5130133;27;20066;-52
2024/04/03 09:15:38;;;;;;;5.22;1.55;;;;;;;19.37;43.24;99942.13;5129831;27;20161;-54
2024/04/03 09:18:06;;;;;;;15.20;7.65;;;;;;;19.28;43.09;99937.66;5130528;27;20050;-53
2024/04/03 09:20:33;;;;;;;14.20;7.57;;;;;;;19.46;43.00;99934.94;5130720;27;20051;-49
2024/04/03 09:23:00;;;;;;;5.20;2.67;;;;;;;19.60;42.83;99933.59;5130478;27;20043;-51
2024/04/03 09:25:29;;;;;;;4.30;1.85;;;;;;;19.58;42.93;99930.16;5130360;27;20043;-50
2024/04/03 09:28:01;;;;;;;2.78;1.30;;;;;;;19.49;41.94;99929.22;5129134;27;20050;-50
2024/04/03 09:30:29;;;;;;;3.58;1.38;;;;;;;19.37;42.24;99923.22;5130107;27;20069;-49
2024/04/03 09:32:58;;;;;;;3.70;1.23;;;;;;;19.31;41.86;99929.25;5130128;27;20039;-51
2024/04/03 09:35:28;;;;;;;4.13;1.23;;;;;;;19.43;41.93;99922.59;5129068;27;20492;-50
2024/04/03 09:37:55;;;;;;;2.45;1.10;;;;;;;19.52;41.33;99920.81;5130130;27;20732;-51
2024/04/03 09:40:26;;;;;;;3.95;1.40;;;;;;;19.42;40.75;99926.31;5130329;27;20039;-52
2024/04/03 09:43:03;;;;;;;3.67;1.23;;;;;;;19.60;40.32;99928.16;5129826;28;20126;-52
2024/04/03 09:45:30;;;;;;;2.55;0.90;;;;;;;19.64;39.80;99919.56;5130278;28;20047;-52
2024/04/03 09:47:59;;;;;;;5.25;1.25;;;;;;;19.68;38.91;99920.09;5130302;28;20146;-54
2024/04/03 09:50:34;;;;;;;3.83;1.10;;;;;;;19.74;38.25;99914.06;5130752;28;20039;-49
2024/04/03 09:53:02;;;;;;;2.08;0.70;;;;;;;19.77;38.74;99913.72;5129757;27;20122;-52
2024/04/03 09:55:28;;;;;;;3.08;0.93;;;;;;;19.86;38.39;99918.19;5129978;27;20055;-51
2024/04/03 09:58:09;;;;;;;2.65;1.25;;;;;;;19.95;38.33;99917.22;5130261;28;20054;-53
2024/04/03 10:00:37;;;;;;;5.05;1.70;;;;;;;19.98;38.33;99913.38;5109523;28;20632;-53
2024/04/03 10:03:05;;;;;;;8.27;1.52;;;;;;;20.02;38.61;99918.28;5109639;28;20043;-49
2024/04/03 10:05:35;;;;;;;31.15;16.08;;;;;;;20.24;39.06;99918.72;5109602;28;20050;-48
2024/04/03 10:08:03;;;;;;;4.93;2.00;;;;;;;20.15;38.63;99912.41;5109487;28;20052;-53
2024/04/03 10:10:30;;;;;;;3.00;1.30;;;;;;;20.05;38.26;99905.44;5109654;28;20048;-55
2024/04/03 10:12:58;;;;;;;3.03;1.38;;;;;;;20.17;37.40;99904.13;5109328;28;20100;-50
2024/04/03 10:15:27;;;;;;;3.28;1.17;;;;;;;20.24;37.34;99910.59;5109509;28;20143;-51
2024/04/03 10:18:01;;;;;;;5.40;1.25;;;;;;;20.17;37.51;99904.13;5109746;28;20048;-51
2024/04/03 10:20:38;;;;;;;2.15;1.10;;;;;;;20.22;37.05;99896.38;5109246;28;20043;-54
2024/04/03 10:23:08;;;;;;;2.90;1.20;;;;;;;20.29;37.33;99902.84;5109271;28;20090;-55
2024/04/03 10:25:35;;;;;;;3.10;1.10;;;;;;;20.06;37.61;99899.00;5109450;28;20067;-57
2024/04/03 10:28:09;;;;;;;3.28;1.27;;;;;;;20.15;36.56;99900.72;5109562;28;20055;-50
2024/04/03 10:30:38;;;;;;;2.40;1.00;;;;;;;20.02;37.05;99895.78;5120007;28;20066;-50
2024/04/03 10:33:06;;;;;;;2.92;1.23;;;;;;;19.92;36.82;99900.47;5129889;28;20054;-51
2024/04/03 10:35:33;;;;;;;4.05;1.10;;;;;;;20.09;36.16;99896.00;5129888;28;20112;-53
2024/04/03 10:37:59;;;;;;;3.85;1.13;;;;;;;20.19;36.07;99883.16;5129956;28;20197;-52
2024/04/03 10:40:27;;;;;;;2.38;0.90;;;;;;;20.24;34.84;99875.38;5132005;27;20125;-54
2024/04/03 10:42:54;;;;;;;3.67;1.27;;;;;;;20.16;34.96;99883.47;5133486;27;20043;-53
2024/04/03 10:45:21;;;;;;;1.75;0.73;;;;;;;20.18;34.71;99884.19;5133649;27;20043;-53
2024/04/03 10:47:49;;;;;;;3.10;0.85;;;;;;;20.26;35.06;99885.03;5133702;27;20043;-53
2024/04/03 10:50:18;;;;;;;3.58;1.10;;;;;;;20.41;33.98;99879.00;5133115;27;20047;-53
2024/04/03 10:52:44;;;;;;;1.80;0.85;;;;;;;20.39;33.96;99871.06;5133120;27;20053;-56
2024/04/03 10:55:12;;;;;;;2.60;1.00;;;;;;;20.43;33.20;99872.44;5133107;27;20134;-53
2024/04/03 10:57:39;;;;;;;2.47;0.70;;;;;;;20.38;33.98;99874.78;5133372;27;20051;-53
2024/04/03 11:00:12;;;;;;;2.90;0.93;;;;;;;20.58;33.45;99868.09;5132908;27;20092;-53
2024/04/03 11:02:41;;;;;;;;;;;;;;;20.48;31.99;99870.09;5133325;27;20496;-51
2024/04/03 11:05:09;;;;;;;2.40;0.80;;;;;;;20.47;32.52;99864.84;5132729;27;19920;-51
2024/04/03 11:07:36;;;;;;;2.88;0.80;;;;;;;20.52;32.32;99870.59;5132661;27;20504;-54
2024/04/03 11:10:09;;;;;;;3.42;1.05;;;;;;;20.54;32.16;99874.84;5132708;27;20473;-51
2024/04/03 11:12:35;;;;;;;2.08;0.80;;;;;;;20.33;32.93;99863.56;5132617;27;20043;-50
2024/04/03 11:15:03;;;;;;;5.47;1.52;;;;;;;20.32;32.49;99864.59;5131937;27;20415;-56
2024/04/03 11:17:29;;;;;;;4.75;1.38;;;;;;;20.22;34.28;99853.06;5132950;27;20360;-53
2024/04/03 11:19:56;;;;;;;2.58;0.90;;;;;;;20.16;34.24;99854.53;5131978;27;20404;-54
2024/04/03 11:22:24;;;;;;;4.78;1.00;;;;;;;20.01;34.02;99857.03;5132588;27;20054;-53
2024/04/03 11:24:53;;;;;;;1.45;0.75;;;;;;;20.03;34.92;99848.75;5132209;27;20047;-53
2024/04/03 11:27:19;;;;;;;5.22;1.30;;;;;;;20.16;33.96;99837.44;5132265;27;20111;-54
2024/04/03 11:29:46;;;;;;;2.50;1.00;;;;;;;20.09;34.74;99841.84;5132005;27;20138;-54
2024/04/03 11:32:14;;;;;;;3.65;0.93;;;;;;;19.93;34.77;99843.44;5132278;27;20150;-55
2024/04/03 11:34:41;;;;;;;6.50;1.17;;;;;;;19.99;34.37;99826.56;5132322;27;20047;-53
2024/04/03 11:37:07;;;;;;;1.42;0.50;;;;;;;20.07;34.78;99831.16;5132125;27;20129;-51
2024/04/03 11:39:36;;;;;;;5.95;1.40;;;;;;;20.29;34.43;99836.00;5132470;27;20408;-55